Hebo, OR

12:44 PM PST on February 20, 2017 (GMT -0800)
Resort Drive | | Change Station

Elev 66 ft 45.19 °N, 123.93 °W | Updated 1 minute ago

Rain
Rain
50.2 °F
Feels Like 50.2 °F
N
4.6
Wind Variable Wind from North
Gusts 9.8 mph

Today
High -- | Low -- °F
--% Chance of Precip.
Yesterday
High -- | Low -- °F
Precip. -- in
Pressure 29.69 in
Visibility 7.0 miles
Clouds Scattered Clouds 1500 ft
Mostly Cloudy 2100 ft
Overcast 3500 ft
Dew Point 50 °F
Humidity 99%
Rainfall 0.15 in
Snow Depth Not available.
7:07 AM 5:50 PM
Waning Crescent, 31% visible
METAR KTMK 202035Z AUTO 19009G15KT 7SM UP SCT015 BKN021 OVC035 08/06 A2969 RMK AO2 P0001
Pressure 29.69 in
Visibility 7.0 miles
Clouds Scattered Clouds 1500 ft
Mostly Cloudy 2100 ft
Overcast 3500 ft
Dew Point 50 °F
Humidity 99%
Rainfall 0.15 in
Snow Depth Not available.
7:07 AM 5:50 PM
Waning Crescent, 31% visible
METAR KTMK 202035Z AUTO 19009G15KT 7SM UP SCT015 BKN021 OVC035 08/06 A2969 RMK AO2 P0001

Get Your Daily Forecast Email!

Thanks for signing up!

Be on the lookout for a verification email in your inbox.

You'll start receiving the daily forecast at 8 AM.

×

10-Day Weather Forecast

Almanac

Astronomy

Feb. 20, 2017 Rise Set
Actual Time
Civil Twilight
Nautical Twilight
Astronomical Twilight
Moon
Length of Visible Light
Length of Day
Tomorrow will be .
, % of the Moon is Illuminated

Today's Extremes

State Highs State Lows

Community

WunderPhotos

Upload Photos

1,962,540 photos uploaded!

WunderBlog® & News

Nearby

Air Quality

  Air Quality AQ Index Pollutant
Not available.

Snow Depth

Station Depth Elevation

Earthquake Activity

City Distance Mag. Time & Date
Minimum magnitude displayed is 2.5.

Coastal Water Temperatures

Place Temperature

Stations

Nearby Weather Stations

Station Location Temp. Windchill Dew Point Humidity Wind Precip. Elev Updated Type
                   

Watches & Warnings

Small Craft for Hazardous Seas Advisory
Issued: 8:38 AM PST Feb. 20, 2017 – National Weather Service

... Small Craft Advisory for hazardous seas remains in effect
until 4 PM PST this afternoon...

* seas... 10 to 12 ft today then below 10 ft starting late this
afternoon.

Precautionary/preparedness actions...

A Small Craft Advisory for hazardous seas means that waves are
expected to be hazardous to small craft. Mariners should avoid
shoaling areas. Long period swell can sharpen into large breaking
waves in shoaling areas. It is not unusual for waves to break
much farther from shoaling areas than is normally experienced.
Remember... breaking waves can easily capsize even larger vessels.